createdAt,value
2018-07-04T00:02:35.107Z,98592.00
2018-07-04T00:05:20.986Z,98581.00
2018-07-04T00:08:07.006Z,98583.00
2018-07-04T00:10:52.766Z,98584.00
2018-07-04T00:13:38.486Z,98590.00
2018-07-04T00:16:24.366Z,98596.00
2018-07-04T00:19:10.286Z,98593.00
2018-07-04T00:21:55.946Z,98593.00
2018-07-04T00:24:41.646Z,98603.00
2018-07-04T00:27:27.407Z,98599.00
2018-07-04T00:30:13.046Z,98596.00
2018-07-04T00:32:58.886Z,98596.00
2018-07-04T00:35:44.866Z,98600.00
2018-07-04T00:38:30.646Z,98602.00
2018-07-04T00:41:16.527Z,98599.00
2018-07-04T00:44:02.289Z,98604.00
2018-07-04T00:46:48.066Z,98601.00
2018-07-04T00:49:33.590Z,98601.00
2018-07-04T00:52:19.246Z,98603.00
2018-07-04T00:55:05.026Z,98595.00
2018-07-04T00:57:50.606Z,98599.00
2018-07-04T01:00:36.266Z,98589.00
2018-07-04T01:03:16.265Z,98601.00
2018-07-04T01:06:01.846Z,98600.00
2018-07-04T01:08:47.726Z,98590.00
2018-07-04T01:11:33.266Z,98595.00
2018-07-04T01:14:13.286Z,98591.00
2018-07-04T01:16:59.026Z,98592.00
2018-07-04T01:19:44.666Z,98591.00
2018-07-04T01:22:30.567Z,98591.00
2018-07-04T01:25:16.305Z,98594.00
2018-07-04T01:28:08.245Z,98591.00
2018-07-04T01:31:00.066Z,98591.00
2018-07-04T01:33:45.705Z,98574.00
2018-07-04T01:36:31.388Z,98568.00
2018-07-04T01:39:17.245Z,98576.00
2018-07-04T01:42:03.385Z,98570.00
2018-07-04T01:44:48.945Z,98571.00
2018-07-04T01:47:34.765Z,98567.00
2018-07-04T01:50:20.306Z,98572.00
2018-07-04T01:53:05.925Z,98572.00
2018-07-04T01:55:51.670Z,98569.00
2018-07-04T01:58:37.345Z,98564.00
2018-07-04T02:01:22.965Z,98567.00
2018-07-04T02:04:08.805Z,98562.00
2018-07-04T02:06:54.445Z,98563.00
2018-07-04T02:09:40.165Z,98563.00
2018-07-04T02:12:25.705Z,98565.00
2018-07-04T02:15:11.386Z,98566.00
2018-07-04T02:17:57.065Z,98568.00
2018-07-04T02:20:42.825Z,98564.00
2018-07-04T02:23:28.642Z,98561.00
2018-07-04T02:26:14.345Z,98561.00
2018-07-04T02:29:00.029Z,98567.00
2018-07-04T02:31:45.753Z,98565.00
2018-07-04T02:34:31.506Z,98568.00
2018-07-04T02:37:17.025Z,98563.00
2018-07-04T02:40:02.758Z,98569.00
2018-07-04T02:42:48.685Z,98572.00
2018-07-04T02:45:34.507Z,98563.00
2018-07-04T02:48:20.746Z,98562.00
2018-07-04T02:51:06.312Z,98552.00
2018-07-04T02:53:52.092Z,98566.00
2018-07-04T02:56:37.725Z,98560.00
2018-07-04T02:59:23.345Z,98566.00
2018-07-04T03:02:08.945Z,98566.00
2018-07-04T03:04:54.625Z,98563.00
2018-07-04T03:07:40.400Z,98566.00
2018-07-04T03:10:26.285Z,98571.00
2018-07-04T03:13:11.934Z,98572.00
2018-07-04T03:15:51.885Z,98571.00
2018-07-04T03:18:37.585Z,98566.00
2018-07-04T03:21:23.466Z,98569.00
2018-07-04T03:24:09.225Z,98565.00
2018-07-04T03:26:54.905Z,98564.00
2018-07-04T03:29:40.466Z,98571.00
2018-07-04T03:32:26.366Z,98573.00
2018-07-04T03:35:12.108Z,98572.00
2018-07-04T03:37:57.780Z,98586.00
2018-07-04T03:40:43.326Z,98581.00
2018-07-04T03:43:29.145Z,98577.00
2018-07-04T03:46:14.870Z,98580.00
2018-07-04T03:49:00.666Z,98587.00
2018-07-04T03:51:46.426Z,98592.00
2018-07-04T03:54:32.006Z,98598.00
2018-07-04T03:57:17.607Z,98604.00
2018-07-04T04:00:03.086Z,98598.00
2018-07-04T04:02:48.926Z,98599.00
2018-07-04T04:05:34.566Z,98596.00
2018-07-04T04:08:20.387Z,98606.00
2018-07-04T04:11:06.445Z,98601.00
2018-07-04T04:13:52.391Z,98603.00
2018-07-04T04:16:38.026Z,98598.00
2018-07-04T04:19:27.586Z,98599.00
2018-07-04T04:22:14.446Z,98602.00
2018-07-04T04:25:00.126Z,98603.00
2018-07-04T04:27:45.726Z,98601.00
2018-07-04T04:30:31.320Z,98601.00
2018-07-04T04:33:17.026Z,98606.00
2018-07-04T04:36:02.666Z,98607.00
2018-07-04T04:38:48.388Z,98605.00
2018-07-04T04:41:33.946Z,98605.00
2018-07-04T04:44:19.826Z,98603.00
2018-07-04T04:47:05.386Z,98609.00
2018-07-04T04:49:51.265Z,98598.00
2018-07-04T04:52:37.086Z,98600.00
2018-07-04T04:55:22.786Z,98595.00
2018-07-04T04:58:08.426Z,98596.00
2018-07-04T05:00:54.006Z,98605.00
2018-07-04T05:03:39.766Z,98600.00
2018-07-04T05:06:25.605Z,98606.00
2018-07-04T05:09:11.346Z,98617.00
2018-07-04T05:11:57.060Z,98624.00
2018-07-04T05:14:42.886Z,98630.00
2018-07-04T05:17:28.946Z,98623.00
2018-07-04T05:20:14.767Z,98623.00
2018-07-04T05:23:00.361Z,98621.00
2018-07-04T05:25:46.006Z,98617.00
2018-07-04T05:28:31.715Z,98616.00
2018-07-04T05:31:17.248Z,98619.00
2018-07-04T05:34:03.011Z,98625.00
2018-07-04T05:36:48.847Z,98622.00
2018-07-04T05:39:34.589Z,98626.00
2018-07-04T05:42:20.326Z,98630.00
2018-07-04T05:45:06.127Z,98627.00
2018-07-04T05:47:51.828Z,98628.00
2018-07-04T05:50:37.853Z,98634.00
2018-07-04T05:53:23.466Z,98629.00
2018-07-04T05:56:09.451Z,98630.00
2018-07-04T05:58:55.228Z,98633.00
2018-07-04T06:01:40.906Z,98637.00
2018-07-04T06:04:26.506Z,98640.00
2018-07-04T06:07:12.329Z,98636.00
2018-07-04T06:09:57.986Z,98639.00
2018-07-04T06:12:43.746Z,98636.00
2018-07-04T06:15:29.406Z,98640.00
2018-07-04T06:18:15.188Z,98626.00
2018-07-04T06:21:00.806Z,98629.00
2018-07-04T06:23:46.606Z,98626.00
2018-07-04T06:26:32.306Z,98629.00
2018-07-04T06:29:18.127Z,98632.00
2018-07-04T06:32:04.206Z,98628.00
2018-07-04T06:34:50.007Z,98623.00
2018-07-04T06:37:39.807Z,98629.00
2018-07-04T06:40:07.487Z,98626.00
2018-07-04T06:42:35.449Z,98623.00
2018-07-04T06:45:02.686Z,98624.00
2018-07-04T06:47:29.946Z,98613.00
2018-07-04T06:49:57.046Z,98611.00
2018-07-04T06:52:24.166Z,98613.00
2018-07-04T06:54:51.746Z,98606.00
2018-07-04T06:57:20.026Z,98609.00
2018-07-04T06:59:48.227Z,98609.00
2018-07-04T07:02:16.801Z,98609.00
2018-07-04T07:05:03.226Z,98606.00
2018-07-04T07:07:48.906Z,98604.00
2018-07-04T07:10:34.566Z,98610.00
2018-07-04T07:13:14.446Z,98607.00
2018-07-04T07:16:00.306Z,98603.00
2018-07-04T07:18:45.846Z,98601.00
2018-07-04T07:21:31.470Z,98595.00
2018-07-04T07:24:17.266Z,98601.00
2018-07-04T07:27:03.407Z,98592.00
2018-07-04T07:29:48.986Z,98596.00
2018-07-04T07:32:34.591Z,98597.00
2018-07-04T07:35:20.266Z,98596.00
2018-07-04T07:38:06.046Z,98591.00
2018-07-04T07:40:51.629Z,98590.00
2018-07-04T07:43:37.366Z,98595.00
2018-07-04T07:46:23.246Z,98592.00
2018-07-04T07:49:08.826Z,98588.00
2018-07-04T07:51:54.506Z,98591.00
2018-07-04T07:54:40.257Z,98594.00
2018-07-04T07:57:26.068Z,98592.00
2018-07-04T08:00:05.846Z,98592.00
2018-07-04T08:02:51.646Z,98594.00
2018-07-04T08:05:37.346Z,98588.00
2018-07-04T08:08:23.046Z,98590.00
2018-07-04T08:11:08.806Z,98582.00
2018-07-04T08:13:55.185Z,98585.00
2018-07-04T08:16:41.107Z,98579.00
2018-07-04T08:19:27.047Z,98569.00
2018-07-04T08:22:12.885Z,98579.00
2018-07-04T08:24:58.569Z,98578.00
2018-07-04T08:27:44.366Z,98579.00
2018-07-04T08:30:30.186Z,98579.00
2018-07-04T08:33:16.106Z,98573.00
2018-07-04T08:36:01.886Z,98579.00
2018-07-04T08:38:47.661Z,98582.00
2018-07-04T08:41:33.453Z,98577.00
2018-07-04T08:44:19.306Z,98583.00
2018-07-04T08:47:05.088Z,98587.00
2018-07-04T08:49:44.926Z,98584.00
2018-07-04T08:52:31.009Z,98583.00
2018-07-04T08:55:16.586Z,98588.00
2018-07-04T08:58:02.327Z,98582.00
2018-07-04T09:00:48.007Z,98576.00
2018-07-04T09:03:33.606Z,98576.00
2018-07-04T09:06:19.313Z,98581.00
2018-07-04T09:09:04.926Z,98581.00
2018-07-04T09:11:50.782Z,98576.00
2018-07-04T09:14:36.447Z,98579.00
2018-07-04T09:17:22.127Z,98572.00
2018-07-04T09:20:07.846Z,98569.00
2018-07-04T09:22:54.027Z,98563.00
2018-07-04T09:25:40.146Z,98572.00
2018-07-04T09:28:25.648Z,98569.00
2018-07-04T09:31:05.786Z,98571.00
2018-07-04T09:33:51.406Z,98565.00
2018-07-04T09:36:37.107Z,98575.00
2018-07-04T09:39:22.746Z,98572.00
2018-07-04T09:42:08.526Z,98578.00
2018-07-04T09:44:48.508Z,98571.00
2018-07-04T09:47:34.308Z,98567.00
2018-07-04T09:50:20.167Z,98569.00
2018-07-04T09:53:05.966Z,98567.00
2018-07-04T09:55:54.147Z,98564.00
2018-07-04T09:58:39.906Z,98557.00
2018-07-04T10:01:26.586Z,98563.00
2018-07-04T10:04:12.266Z,98558.00
2018-07-04T10:06:58.086Z,98553.00
2018-07-04T10:09:43.966Z,98549.00
2018-07-04T10:12:29.789Z,98543.00
2018-07-04T10:15:15.726Z,98548.00
2018-07-04T10:18:01.608Z,98545.00
2018-07-04T10:20:47.286Z,98543.00
2018-07-04T10:23:27.145Z,98540.00
2018-07-04T10:26:13.486Z,98534.00
2018-07-04T10:28:59.326Z,98540.00
2018-07-04T10:31:45.147Z,98541.00
2018-07-04T10:34:30.892Z,98527.00
2018-07-04T10:37:16.686Z,98535.00
2018-07-04T10:40:02.626Z,98531.00
2018-07-04T10:42:48.627Z,98527.00
2018-07-04T10:45:34.589Z,98526.00
2018-07-04T10:48:20.226Z,98525.00
2018-07-04T10:51:06.007Z,98519.00
2018-07-04T10:53:51.829Z,98521.00
2018-07-04T10:56:37.587Z,98514.00
2018-07-04T10:59:23.126Z,98517.00
2018-07-04T11:02:08.926Z,98511.00
2018-07-04T11:04:54.747Z,98504.00
2018-07-04T11:07:40.585Z,98501.00
2018-07-04T11:10:26.287Z,98501.00
2018-07-04T11:13:12.247Z,98502.00
2018-07-04T11:15:58.286Z,98499.00
2018-07-04T11:18:44.027Z,98500.00
2018-07-04T11:21:29.926Z,98495.00
2018-07-04T11:24:15.546Z,98495.00
2018-07-04T11:27:01.287Z,98499.00
2018-07-04T11:29:46.887Z,98493.00
2018-07-04T11:32:32.486Z,98485.00
2018-07-04T11:35:18.247Z,98491.00
2018-07-04T11:38:04.054Z,98492.00
2018-07-04T11:40:49.647Z,98482.00
2018-07-04T11:43:35.607Z,98477.00
2018-07-04T11:46:02.787Z,98479.00
2018-07-04T11:48:29.987Z,98473.00
2018-07-04T11:50:57.187Z,98475.00
2018-07-04T11:53:24.437Z,98470.00
2018-07-04T11:55:51.687Z,98468.00
2018-07-04T11:58:18.818Z,98464.00
2018-07-04T12:00:46.147Z,98465.00
2018-07-04T12:03:16.409Z,98460.00
2018-07-04T12:06:02.288Z,98454.00
2018-07-04T12:08:29.707Z,98458.00
2018-07-04T12:10:57.559Z,98452.00
2018-07-04T12:13:25.794Z,98447.00
2018-07-04T12:15:53.065Z,98448.00
2018-07-04T12:18:20.205Z,98450.00
2018-07-04T12:20:47.375Z,98449.00
2018-07-04T12:23:15.026Z,98444.00
2018-07-04T12:25:43.548Z,98445.00
2018-07-04T12:28:10.805Z,98444.00
2018-07-04T12:30:37.945Z,98445.00
2018-07-04T12:33:05.026Z,98444.00
2018-07-04T12:35:32.207Z,98445.00
2018-07-04T12:37:59.320Z,98434.00
2018-07-04T12:40:26.485Z,98436.00
2018-07-04T12:42:54.045Z,98432.00
2018-07-04T12:45:21.107Z,98430.00
2018-07-04T12:47:48.366Z,98435.00
2018-07-04T12:50:29.145Z,98437.00
2018-07-04T12:52:56.368Z,98429.00
2018-07-04T12:55:43.268Z,98427.00
2018-07-04T12:58:28.988Z,98427.00
2018-07-04T13:01:14.692Z,98426.00
2018-07-04T13:04:00.629Z,98422.00
2018-07-04T13:06:46.189Z,98415.00
2018-07-04T13:09:31.909Z,98410.00
2018-07-04T13:12:17.429Z,98411.00
2018-07-04T13:15:03.189Z,98406.00
2018-07-04T13:17:48.948Z,98403.00
2018-07-04T13:20:34.672Z,98410.00
2018-07-04T13:23:20.292Z,98403.00
2018-07-04T13:26:06.132Z,98409.00
2018-07-04T13:28:52.012Z,98406.00
2018-07-04T13:31:37.714Z,98398.00
2018-07-04T13:34:23.538Z,98394.00
2018-07-04T13:37:09.753Z,98398.00
2018-07-04T13:39:55.771Z,98397.00
2018-07-04T13:42:41.591Z,98396.00
2018-07-04T13:45:27.563Z,98391.00
2018-07-04T13:48:13.263Z,98390.00
2018-07-04T13:50:58.990Z,98384.00
2018-07-04T13:53:44.593Z,98387.00
2018-07-04T13:56:30.403Z,98381.00
2018-07-04T13:59:15.944Z,98389.00
2018-07-04T14:02:01.954Z,98386.00
2018-07-04T14:04:47.702Z,98387.00
2018-07-04T14:07:33.522Z,98385.00
2018-07-04T14:10:19.220Z,98382.00
2018-07-04T14:13:04.982Z,98378.00
2018-07-04T14:15:50.582Z,98380.00
2018-07-04T14:18:36.183Z,98379.00
2018-07-04T14:21:21.843Z,98376.00
2018-07-04T14:24:07.643Z,98374.00
2018-07-04T14:26:53.524Z,98367.00
2018-07-04T14:29:39.243Z,98373.00
2018-07-04T14:32:25.004Z,98375.00
2018-07-04T14:35:10.766Z,98370.00
2018-07-04T14:37:56.867Z,98362.00
2018-07-04T14:40:42.563Z,98367.00
2018-07-04T14:43:28.361Z,98365.00
2018-07-04T14:46:13.941Z,98364.00
2018-07-04T14:49:00.141Z,98355.00
2018-07-04T14:51:45.880Z,98368.00
2018-07-04T14:54:31.541Z,98360.00
2018-07-04T14:57:17.300Z,98357.00
2018-07-04T15:00:02.921Z,98355.00
2018-07-04T15:02:42.821Z,98350.00
2018-07-04T15:05:28.702Z,98349.00
2018-07-04T15:08:14.521Z,98355.00
2018-07-04T15:11:00.361Z,98358.00
2018-07-04T15:13:46.201Z,98350.00
2018-07-04T15:16:26.043Z,98343.00
2018-07-04T15:19:11.804Z,98343.00
2018-07-04T15:21:58.041Z,98349.00
2018-07-04T15:24:43.807Z,98346.00
2018-07-04T15:27:29.737Z,98349.00
2018-07-04T15:30:15.481Z,98340.00
2018-07-04T15:33:01.152Z,98343.00
2018-07-04T15:35:47.002Z,98340.00
2018-07-04T15:38:32.643Z,98345.00
2018-07-04T15:41:18.201Z,98340.00
2018-07-04T15:44:03.871Z,98340.00
2018-07-04T15:46:49.841Z,98338.00
2018-07-04T15:49:35.677Z,98340.00
2018-07-04T15:52:21.637Z,98336.00
2018-07-04T15:55:07.390Z,98338.00
2018-07-04T15:57:53.215Z,98332.00
2018-07-04T16:00:40.047Z,98331.00
2018-07-04T16:03:25.708Z,98323.00
2018-07-04T16:06:11.394Z,98320.00
2018-07-04T16:08:57.171Z,98327.00
2018-07-04T16:11:43.695Z,98324.00
2018-07-04T16:14:29.673Z,98324.00
2018-07-04T16:17:15.272Z,98324.00
2018-07-04T16:20:00.933Z,98321.00
2018-07-04T16:22:46.652Z,98324.00
2018-07-04T16:25:32.472Z,98314.00
2018-07-04T16:28:18.161Z,98313.00
2018-07-04T16:31:03.713Z,98304.00
2018-07-04T16:33:49.360Z,98312.00
2018-07-04T16:36:35.079Z,98314.00
2018-07-04T16:39:20.679Z,98318.00
2018-07-04T16:42:06.798Z,98324.00
2018-07-04T16:44:52.418Z,98313.00
2018-07-04T16:47:38.338Z,98323.00
2018-07-04T16:50:23.860Z,98327.00
2018-07-04T16:53:09.618Z,98329.00
2018-07-04T16:55:55.198Z,98322.00
2018-07-04T16:58:40.938Z,98322.00
2018-07-04T17:01:26.533Z,98328.00
2018-07-04T17:04:12.260Z,98329.00
2018-07-04T17:06:58.066Z,98335.00
2018-07-04T17:09:43.718Z,98337.00
2018-07-04T17:12:23.678Z,98339.00
2018-07-04T17:15:09.499Z,98337.00
2018-07-04T17:17:55.198Z,98346.00
2018-07-04T17:20:41.798Z,98342.00
2018-07-04T17:23:27.718Z,98339.00
2018-07-04T17:26:13.558Z,98338.00
2018-07-04T17:28:59.301Z,98347.00
2018-07-04T17:31:45.098Z,98342.00
2018-07-04T17:34:30.718Z,98340.00
2018-07-04T17:37:16.478Z,98340.00
2018-07-04T17:40:02.258Z,98336.00
2018-07-04T17:42:48.118Z,98338.00
2018-07-04T17:45:34.020Z,98347.00
2018-07-04T17:48:20.019Z,98342.00
2018-07-04T17:51:05.898Z,98346.00
2018-07-04T17:53:46.301Z,98347.00
2018-07-04T17:56:32.187Z,98341.00
2018-07-04T17:59:17.787Z,98346.00
2018-07-04T18:02:03.567Z,98344.00
2018-07-04T18:04:49.567Z,98345.00
2018-07-04T18:07:35.248Z,98352.00
2018-07-04T18:10:20.807Z,98353.00
2018-07-04T18:13:06.742Z,98355.00
2018-07-04T18:15:52.414Z,98357.00
2018-07-04T18:18:38.554Z,98356.00
2018-07-04T18:21:26.033Z,98351.00
2018-07-04T18:24:11.813Z,98348.00
2018-07-04T18:26:57.277Z,98350.00
2018-07-04T18:29:43.133Z,98346.00
2018-07-04T18:32:28.937Z,98351.00
2018-07-04T18:35:14.693Z,98358.00
2018-07-04T18:38:00.293Z,98360.00
2018-07-04T18:40:40.274Z,98364.00
2018-07-04T18:43:26.034Z,98361.00
2018-07-04T18:46:12.077Z,98366.00
2018-07-04T18:48:57.793Z,98364.00
2018-07-04T18:51:43.553Z,98358.00
2018-07-04T18:54:29.154Z,98360.00
2018-07-04T18:57:14.976Z,98353.00
2018-07-04T19:00:00.688Z,98357.00
2018-07-04T19:02:46.452Z,98355.00
2018-07-04T19:05:32.246Z,98362.00
2018-07-04T19:08:18.232Z,98362.00
2018-07-04T19:11:04.486Z,98367.00
2018-07-04T19:13:50.297Z,98366.00
2018-07-04T19:16:35.960Z,98372.00
2018-07-04T19:19:21.639Z,98363.00
2018-07-04T19:22:01.979Z,98375.00
2018-07-04T19:24:47.680Z,98372.00
2018-07-04T19:27:34.439Z,98380.00
2018-07-04T19:30:20.020Z,98381.00
2018-07-04T19:33:05.699Z,98384.00
2018-07-04T19:35:51.419Z,98394.00
2018-07-04T19:38:37.159Z,98404.00
2018-07-04T19:41:23.379Z,98394.00
2018-07-04T19:44:09.120Z,98406.00
2018-07-04T19:46:54.819Z,98406.00
2018-07-04T19:49:40.492Z,98409.00
2018-07-04T19:52:26.199Z,98412.00
2018-07-04T19:55:11.902Z,98406.00
2018-07-04T19:57:57.699Z,98416.00
2018-07-04T20:00:44.320Z,98419.00
2018-07-04T20:03:30.020Z,98415.00
2018-07-04T20:06:15.860Z,98419.00
2018-07-04T20:09:02.901Z,98414.00
2018-07-04T20:11:48.543Z,98419.00
2018-07-04T20:14:34.303Z,98425.00
2018-07-04T20:17:20.104Z,98422.00
2018-07-04T20:20:06.224Z,98428.00
2018-07-04T20:22:51.845Z,98424.00
2018-07-04T20:25:37.643Z,98431.00
2018-07-04T20:28:23.261Z,98429.00
2018-07-04T20:31:09.100Z,98427.00
2018-07-04T20:33:54.759Z,98421.00
2018-07-04T20:36:41.000Z,98425.00
2018-07-04T20:39:26.760Z,98426.00
2018-07-04T20:42:12.600Z,98419.00
2018-07-04T20:44:58.400Z,98425.00
2018-07-04T20:47:43.996Z,98424.00
2018-07-04T20:50:29.600Z,98421.00
2018-07-04T20:53:15.460Z,98421.00
2018-07-04T20:56:01.060Z,98421.00
2018-07-04T20:58:46.760Z,98430.00
2018-07-04T21:01:32.820Z,98425.00
2018-07-04T21:04:18.420Z,98428.00
2018-07-04T21:07:04.201Z,98429.00
2018-07-04T21:09:49.725Z,98439.00
2018-07-04T21:12:35.525Z,98434.00
2018-07-04T21:15:21.216Z,98436.00
2018-07-04T21:18:06.945Z,98439.00
2018-07-04T21:20:52.584Z,98442.00
2018-07-04T21:23:38.365Z,98444.00
2018-07-04T21:26:24.089Z,98448.00
2018-07-04T21:29:09.888Z,98446.00
2018-07-04T21:31:55.608Z,98438.00
2018-07-04T21:34:41.646Z,98443.00
2018-07-04T21:37:27.386Z,98440.00
2018-07-04T21:40:13.126Z,98440.00
2018-07-04T21:42:58.786Z,98453.00
2018-07-04T21:45:44.647Z,98450.00
2018-07-04T21:48:30.225Z,98449.00
2018-07-04T21:51:10.009Z,98449.00
2018-07-04T21:53:55.787Z,98446.00
2018-07-04T21:56:41.486Z,98443.00
2018-07-04T21:59:27.239Z,98438.00
2018-07-04T22:02:13.087Z,98437.00
2018-07-04T22:04:58.700Z,98437.00
2018-07-04T22:07:44.441Z,98438.00
2018-07-04T22:10:30.200Z,98427.00
2018-07-04T22:13:16.301Z,98425.00
2018-07-04T22:16:02.142Z,98420.00
2018-07-04T22:18:47.820Z,98413.00
2018-07-04T22:21:33.400Z,98415.00
2018-07-04T22:24:19.141Z,98425.00
2018-07-04T22:27:04.720Z,98415.00
2018-07-04T22:29:50.419Z,98404.00
2018-07-04T22:32:36.319Z,98404.00
2018-07-04T22:35:22.080Z,98405.00
2018-07-04T22:38:07.701Z,98411.00
2018-07-04T22:40:53.264Z,98407.00
2018-07-04T22:43:38.985Z,98407.00
2018-07-04T22:46:19.072Z,98395.00
2018-07-04T22:49:04.664Z,98403.00
2018-07-04T22:51:50.472Z,98406.00
2018-07-04T22:54:36.272Z,98406.00
2018-07-04T22:57:22.193Z,98402.00
2018-07-04T23:00:08.053Z,98399.00
2018-07-04T23:02:53.732Z,98403.00
2018-07-04T23:05:39.472Z,98406.00
2018-07-04T23:08:25.232Z,98408.00
2018-07-04T23:11:10.932Z,98404.00
2018-07-04T23:13:56.895Z,98398.00
2018-07-04T23:16:42.632Z,98392.00
2018-07-04T23:19:28.352Z,98398.00
2018-07-04T23:22:14.012Z,98404.00
2018-07-04T23:24:59.832Z,98405.00
2018-07-04T23:27:45.932Z,98404.00
2018-07-04T23:30:31.732Z,98395.00
2018-07-04T23:33:17.332Z,98397.00
2018-07-04T23:36:03.112Z,98398.00
2018-07-04T23:38:48.932Z,98393.00
2018-07-04T23:41:34.772Z,98401.00
2018-07-04T23:44:20.612Z,98395.00
2018-07-04T23:47:06.372Z,98389.00
2018-07-04T23:49:52.153Z,98373.00
2018-07-04T23:52:37.972Z,98382.00
2018-07-04T23:55:23.892Z,98389.00
2018-07-04T23:58:09.673Z,98390.00
